createdAt,value
2019-03-06T00:01:43.084Z,998.81
2019-03-06T00:02:43.047Z,998.83
2019-03-06T00:04:36.159Z,998.82
2019-03-06T00:05:36.133Z,998.83
2019-03-06T00:07:40.324Z,998.73
2019-03-06T00:08:40.285Z,998.77
2019-03-06T00:10:44.479Z,998.73
2019-03-06T00:11:44.450Z,998.71
2019-03-06T00:13:48.648Z,998.71
2019-03-06T00:14:48.614Z,998.67
2019-03-06T00:16:53.804Z,998.70
2019-03-06T00:17:53.785Z,998.64
2019-03-06T00:19:57.974Z,998.72
2019-03-06T00:20:57.938Z,998.78
2019-03-06T00:23:02.258Z,998.73
2019-03-06T00:24:02.101Z,998.72
2019-03-06T00:26:06.308Z,998.81
2019-03-06T00:27:06.258Z,998.71
2019-03-06T00:29:10.437Z,998.77
2019-03-06T00:30:10.416Z,998.76
2019-03-06T00:32:14.602Z,998.71
2019-03-06T00:33:14.571Z,998.72
2019-03-06T00:35:18.748Z,998.67
2019-03-06T00:36:19.547Z,998.62
2019-03-06T00:38:22.918Z,998.63
2019-03-06T00:39:22.880Z,998.67
2019-03-06T00:41:27.060Z,998.70
2019-03-06T00:42:27.088Z,998.71
2019-03-06T00:44:20.160Z,998.70
2019-03-06T00:45:20.118Z,998.66
2019-03-06T00:47:24.303Z,998.67
2019-03-06T00:48:24.276Z,998.61
2019-03-06T00:50:28.473Z,998.54
2019-03-06T00:51:28.434Z,998.55
2019-03-06T00:53:32.619Z,998.51
2019-03-06T00:54:32.594Z,998.51
2019-03-06T00:56:36.787Z,998.43
2019-03-06T00:57:36.750Z,998.43
2019-03-06T00:59:40.986Z,998.39
2019-03-06T01:00:40.912Z,998.45
2019-03-06T01:02:45.099Z,998.46
2019-03-06T01:03:45.065Z,998.47
2019-03-06T01:05:49.250Z,998.46
2019-03-06T01:06:49.223Z,998.46
2019-03-06T01:08:53.420Z,998.41
2019-03-06T01:09:53.384Z,998.36
2019-03-06T01:11:58.132Z,998.36
2019-03-06T01:12:57.728Z,998.33
2019-03-06T01:15:01.922Z,998.35
2019-03-06T01:16:01.884Z,998.38
2019-03-06T01:18:06.061Z,998.34
2019-03-06T01:19:06.035Z,998.36
2019-03-06T01:21:10.241Z,998.31
2019-03-06T01:22:10.200Z,998.28
2019-03-06T01:24:03.314Z,998.27
2019-03-06T01:25:03.284Z,998.27
2019-03-06T01:27:07.488Z,998.31
2019-03-06T01:28:07.440Z,998.32
2019-03-06T01:30:11.621Z,998.25
2019-03-06T01:31:11.605Z,998.22
2019-03-06T01:33:15.788Z,998.13
2019-03-06T01:34:15.749Z,998.12
2019-03-06T01:36:19.930Z,998.13
2019-03-06T01:37:19.905Z,998.07
2019-03-06T01:39:24.095Z,998.08
2019-03-06T01:40:24.061Z,998.07
2019-03-06T01:42:28.240Z,998.05
2019-03-06T01:43:28.215Z,998.05
2019-03-06T01:45:32.426Z,998.00
2019-03-06T01:46:32.386Z,998.02
2019-03-06T01:48:36.587Z,997.97
2019-03-06T01:49:36.558Z,997.93
2019-03-06T01:51:40.766Z,997.89
2019-03-06T01:52:40.730Z,997.94
2019-03-06T01:54:33.840Z,997.89
2019-03-06T01:55:33.813Z,997.87
2019-03-06T01:57:37.999Z,997.84
2019-03-06T01:58:37.971Z,997.74
2019-03-06T02:00:42.145Z,997.74
2019-03-06T02:01:42.122Z,997.73
2019-03-06T02:03:46.313Z,997.77
2019-03-06T02:04:46.278Z,997.70
2019-03-06T02:06:50.460Z,997.62
2019-03-06T02:07:50.431Z,997.60
2019-03-06T02:09:54.622Z,997.53
2019-03-06T02:10:54.585Z,997.53
2019-03-06T02:12:58.772Z,997.51
2019-03-06T02:13:58.744Z,997.45
2019-03-06T02:16:02.950Z,997.48
2019-03-06T02:17:02.904Z,997.52
2019-03-06T02:19:07.077Z,997.55
2019-03-06T02:20:07.055Z,997.57
2019-03-06T02:22:11.247Z,997.48
2019-03-06T02:23:11.205Z,997.49
2019-03-06T02:25:15.390Z,997.48
2019-03-06T02:26:15.355Z,997.51
2019-03-06T02:28:19.556Z,997.42
2019-03-06T02:29:19.513Z,997.34
2019-03-06T02:31:23.694Z,997.26
2019-03-06T02:32:23.744Z,997.21
2019-03-06T02:34:16.802Z,997.21
2019-03-06T02:35:16.761Z,997.15
2019-03-06T02:37:20.955Z,997.09
2019-03-06T02:38:20.909Z,997.12
2019-03-06T02:40:25.103Z,997.11
2019-03-06T02:41:25.066Z,997.18
2019-03-06T02:43:29.250Z,997.20
2019-03-06T02:44:29.211Z,997.13
2019-03-06T02:46:33.415Z,997.11
2019-03-06T02:47:33.376Z,997.13
2019-03-06T02:49:37.557Z,997.09
2019-03-06T02:50:37.523Z,997.12
2019-03-06T02:52:41.711Z,997.09
2019-03-06T02:53:41.675Z,997.11
2019-03-06T02:55:45.857Z,997.13
2019-03-06T02:56:45.827Z,997.16
2019-03-06T02:58:50.024Z,997.13
2019-03-06T02:59:49.980Z,997.09
2019-03-06T03:01:54.159Z,996.93
2019-03-06T03:02:54.133Z,996.96
2019-03-06T03:04:58.324Z,996.94
2019-03-06T03:05:58.287Z,996.97
2019-03-06T03:08:02.466Z,996.93
2019-03-06T03:09:02.442Z,996.94
2019-03-06T03:11:06.637Z,996.82
2019-03-06T03:12:06.599Z,996.85
2019-03-06T03:13:59.710Z,996.88
2019-03-06T03:14:59.683Z,996.89
2019-03-06T03:17:03.876Z,996.81
2019-03-06T03:18:03.838Z,996.85
2019-03-06T03:20:08.014Z,996.86
2019-03-06T03:21:07.988Z,996.88
2019-03-06T03:23:12.179Z,996.89
2019-03-06T03:24:12.156Z,996.89
2019-03-06T03:26:16.318Z,996.92
2019-03-06T03:27:16.284Z,996.90
2019-03-06T03:29:20.475Z,996.86
2019-03-06T03:30:20.438Z,996.90
2019-03-06T03:32:24.615Z,996.99
2019-03-06T03:33:24.592Z,996.97
2019-03-06T03:35:28.775Z,996.93
2019-03-06T03:36:28.734Z,996.91
2019-03-06T03:38:32.918Z,996.84
2019-03-06T03:39:32.890Z,996.81
2019-03-06T03:41:37.092Z,996.78
2019-03-06T03:42:37.045Z,996.80
2019-03-06T03:44:30.160Z,996.81
2019-03-06T03:45:30.133Z,996.88
2019-03-06T03:47:34.323Z,996.84
2019-03-06T03:48:34.286Z,996.87
2019-03-06T03:50:38.463Z,996.76
2019-03-06T03:51:38.437Z,996.82
2019-03-06T03:53:42.623Z,996.79
2019-03-06T03:54:42.590Z,996.77
2019-03-06T03:56:46.791Z,996.73
2019-03-06T03:57:46.754Z,996.76
2019-03-06T03:59:50.933Z,996.77
2019-03-06T04:00:50.889Z,996.76
2019-03-06T04:02:55.074Z,996.74
2019-03-06T04:03:55.042Z,996.77
2019-03-06T04:05:59.239Z,996.81
2019-03-06T04:06:59.200Z,996.81
2019-03-06T04:09:03.382Z,996.78
2019-03-06T04:10:03.355Z,996.76
2019-03-06T04:12:07.547Z,996.75
2019-03-06T04:13:07.517Z,996.73
2019-03-06T04:15:00.635Z,996.69
2019-03-06T04:16:00.609Z,996.64
2019-03-06T04:18:04.810Z,996.64
2019-03-06T04:19:04.769Z,996.66
2019-03-06T04:21:08.952Z,996.67
2019-03-06T04:22:08.926Z,996.71
2019-03-06T04:24:13.119Z,996.75
2019-03-06T04:25:13.087Z,996.72
2019-03-06T04:27:17.253Z,996.80
2019-03-06T04:28:17.236Z,996.78
2019-03-06T04:30:21.411Z,996.83
2019-03-06T04:31:21.379Z,996.80
2019-03-06T04:33:25.558Z,996.80
2019-03-06T04:34:25.537Z,996.77
2019-03-06T04:36:29.720Z,996.73
2019-03-06T04:37:29.683Z,996.71
2019-03-06T04:39:33.881Z,996.65
2019-03-06T04:40:33.885Z,996.55
2019-03-06T04:42:38.030Z,996.47
2019-03-06T04:43:37.987Z,996.43
2019-03-06T04:45:42.166Z,996.35
2019-03-06T04:46:42.142Z,996.34
2019-03-06T04:48:46.332Z,996.34
2019-03-06T04:49:52.699Z,996.34
2019-03-06T04:51:50.471Z,996.34
2019-03-06T04:52:50.445Z,996.33
2019-03-06T04:54:43.556Z,996.23
2019-03-06T04:55:43.526Z,996.20
2019-03-06T04:57:47.705Z,996.21
2019-03-06T04:58:47.678Z,996.21
2019-03-06T05:00:51.897Z,996.19
2019-03-06T05:01:51.846Z,996.18
2019-03-06T05:03:56.020Z,996.24
2019-03-06T05:04:55.994Z,996.20
2019-03-06T05:07:00.188Z,996.05
2019-03-06T05:08:00.146Z,996.09
2019-03-06T05:10:04.329Z,996.08
2019-03-06T05:11:04.302Z,996.07
2019-03-06T05:13:08.494Z,996.03
2019-03-06T05:14:08.452Z,996.00
2019-03-06T05:16:12.681Z,996.04
2019-03-06T05:17:12.606Z,996.01
2019-03-06T05:19:16.797Z,995.99
2019-03-06T05:20:16.764Z,996.00
2019-03-06T05:22:20.942Z,996.00
2019-03-06T05:23:20.914Z,995.99
2019-03-06T05:25:14.037Z,996.03
2019-03-06T05:26:13.998Z,996.00
2019-03-06T05:28:18.184Z,996.01
2019-03-06T05:29:18.188Z,995.99
2019-03-06T05:31:22.361Z,995.97
2019-03-06T05:32:22.321Z,995.98
2019-03-06T05:34:26.506Z,996.00
2019-03-06T05:35:26.476Z,995.98
2019-03-06T05:37:30.680Z,995.99
2019-03-06T05:38:30.648Z,995.97
2019-03-06T05:40:34.823Z,995.98
2019-03-06T05:41:34.798Z,995.96
2019-03-06T05:43:39.001Z,995.95
2019-03-06T05:44:38.965Z,995.92
2019-03-06T05:46:43.134Z,995.87
2019-03-06T05:47:43.109Z,995.79
2019-03-06T05:49:47.305Z,995.75
2019-03-06T05:50:47.270Z,995.79
2019-03-06T05:52:51.459Z,995.71
2019-03-06T05:53:51.435Z,995.69
2019-03-06T05:55:55.627Z,995.70
2019-03-06T05:56:55.585Z,995.66
2019-03-06T05:58:59.758Z,995.70
2019-03-06T05:59:59.733Z,995.63
2019-03-06T06:02:03.918Z,995.64
2019-03-06T06:03:03.888Z,995.63
2019-03-06T06:04:56.996Z,995.52
2019-03-06T06:05:56.964Z,995.47
2019-03-06T06:08:01.164Z,995.45
2019-03-06T06:09:01.127Z,995.44
2019-03-06T06:11:05.295Z,995.34
2019-03-06T06:12:05.274Z,995.36
2019-03-06T06:14:09.482Z,995.36
2019-03-06T06:15:09.446Z,995.30
2019-03-06T06:17:13.630Z,995.30
2019-03-06T06:18:13.597Z,995.31
2019-03-06T06:20:17.786Z,995.26
2019-03-06T06:21:17.750Z,995.31
2019-03-06T06:23:21.940Z,995.24
2019-03-06T06:24:21.907Z,995.30
2019-03-06T06:26:26.100Z,995.26
2019-03-06T06:27:26.064Z,995.22
2019-03-06T06:29:30.245Z,995.18
2019-03-06T06:30:30.220Z,995.18
2019-03-06T06:32:34.412Z,995.11
2019-03-06T06:33:34.380Z,995.13
2019-03-06T06:35:38.564Z,995.12
2019-03-06T06:36:38.537Z,995.12
2019-03-06T06:38:42.734Z,995.07
2019-03-06T06:39:42.699Z,995.16
2019-03-06T06:41:46.881Z,995.23
2019-03-06T06:42:46.855Z,995.23
2019-03-06T06:44:39.985Z,995.23
2019-03-06T06:45:39.953Z,995.21
2019-03-06T06:47:44.136Z,995.15
2019-03-06T06:48:44.112Z,995.18
2019-03-06T06:50:48.328Z,995.13
2019-03-06T06:51:48.284Z,995.16
2019-03-06T06:53:52.459Z,995.12
2019-03-06T06:54:52.435Z,995.05
2019-03-06T06:56:56.631Z,995.01
2019-03-06T06:57:56.599Z,995.02
2019-03-06T07:00:00.793Z,994.97
2019-03-06T07:01:00.768Z,994.95
2019-03-06T07:03:04.966Z,994.95
2019-03-06T07:04:04.938Z,995.01
2019-03-06T07:06:09.121Z,995.02
2019-03-06T07:07:09.100Z,995.01
2019-03-06T07:09:13.299Z,995.01
2019-03-06T07:10:13.272Z,994.93
2019-03-06T07:12:17.458Z,994.81
2019-03-06T07:13:17.437Z,994.82
2019-03-06T07:15:10.558Z,994.76
2019-03-06T07:16:10.546Z,994.73
2019-03-06T07:18:14.729Z,994.72
2019-03-06T07:19:14.706Z,994.73
2019-03-06T07:21:18.916Z,994.75
2019-03-06T07:22:18.912Z,994.72
2019-03-06T07:24:23.077Z,994.71
2019-03-06T07:25:23.098Z,994.68
2019-03-06T07:27:27.265Z,994.74
2019-03-06T07:28:27.231Z,994.76
2019-03-06T07:30:31.431Z,994.75
2019-03-06T07:31:31.412Z,994.79
2019-03-06T07:33:35.627Z,994.73
2019-03-06T07:34:35.594Z,994.69
2019-03-06T07:36:39.792Z,994.73
2019-03-06T07:37:39.771Z,994.74
2019-03-06T07:39:43.984Z,994.76
2019-03-06T07:40:43.947Z,994.78
2019-03-06T07:42:48.149Z,994.78
2019-03-06T07:43:48.123Z,994.77
2019-03-06T07:45:52.341Z,994.70
2019-03-06T07:46:52.310Z,994.66
2019-03-06T07:48:56.511Z,994.62
2019-03-06T07:49:56.501Z,994.65
2019-03-06T07:52:00.712Z,994.60
2019-03-06T07:53:00.675Z,994.65
2019-03-06T07:54:53.802Z,994.59
2019-03-06T07:55:53.786Z,994.57
2019-03-06T07:57:57.998Z,994.60
2019-03-06T07:58:57.977Z,994.57
2019-03-06T08:01:02.222Z,994.52
2019-03-06T08:02:02.208Z,994.56
2019-03-06T08:04:06.410Z,994.60
2019-03-06T08:05:06.383Z,994.61
2019-03-06T08:07:10.585Z,994.62
2019-03-06T08:08:10.568Z,994.62
2019-03-06T08:10:14.789Z,994.57
2019-03-06T08:11:14.766Z,994.54
2019-03-06T08:13:18.969Z,994.50
2019-03-06T08:14:22.276Z,994.51
2019-03-06T08:16:23.154Z,994.41
2019-03-06T08:17:23.133Z,994.41
2019-03-06T08:19:28.351Z,994.39
2019-03-06T08:20:28.335Z,994.41
2019-03-06T08:22:32.543Z,994.39
2019-03-06T08:23:32.519Z,994.36
2019-03-06T08:25:36.727Z,994.33
2019-03-06T08:26:36.712Z,994.31
2019-03-06T08:28:40.926Z,994.27
2019-03-06T08:29:40.906Z,994.34
2019-03-06T08:31:45.122Z,994.32
2019-03-06T08:32:45.095Z,994.33
2019-03-06T08:34:38.233Z,994.36
2019-03-06T08:35:38.221Z,994.34
2019-03-06T08:37:42.436Z,994.33
2019-03-06T08:38:42.415Z,994.30
2019-03-06T08:40:46.611Z,994.31
2019-03-06T08:41:46.593Z,994.33
2019-03-06T08:43:50.801Z,994.36
2019-03-06T08:44:50.780Z,994.36
2019-03-06T08:46:55.009Z,994.34
2019-03-06T08:47:54.969Z,994.28
2019-03-06T08:49:59.180Z,994.28
2019-03-06T08:50:59.166Z,994.25
2019-03-06T08:53:03.385Z,994.21
2019-03-06T08:54:03.355Z,994.17
2019-03-06T08:56:07.563Z,994.19
2019-03-06T08:57:07.557Z,994.10
2019-03-06T08:59:11.788Z,994.05
2019-03-06T09:00:11.742Z,994.00
2019-03-06T09:02:15.987Z,993.93
2019-03-06T09:03:15.936Z,993.96
2019-03-06T09:05:09.087Z,993.89
2019-03-06T09:06:09.062Z,993.86
2019-03-06T09:08:13.271Z,993.89
2019-03-06T09:09:13.259Z,993.90
2019-03-06T09:11:17.479Z,993.95
2019-03-06T09:12:17.461Z,993.87
2019-03-06T09:14:21.679Z,993.79
2019-03-06T09:15:23.751Z,993.77
2019-03-06T09:17:26.794Z,993.72
2019-03-06T09:18:25.862Z,993.72
2019-03-06T09:20:36.175Z,993.76
2019-03-06T09:21:30.064Z,993.77
2019-03-06T09:23:34.292Z,993.72
2019-03-06T09:24:34.268Z,993.70
2019-03-06T09:26:38.489Z,993.65
2019-03-06T09:27:38.479Z,993.55
2019-03-06T09:29:42.710Z,993.49
2019-03-06T09:30:42.688Z,993.50
2019-03-06T09:32:46.903Z,993.44
2019-03-06T09:33:46.894Z,993.38
2019-03-06T09:35:51.107Z,993.37
2019-03-06T09:36:51.094Z,993.29
2019-03-06T09:38:55.311Z,993.22
2019-03-06T09:39:55.300Z,993.20
2019-03-06T09:41:59.533Z,993.18
2019-03-06T09:42:59.508Z,993.16
2019-03-06T09:44:52.648Z,993.14
2019-03-06T09:45:52.644Z,993.10
2019-03-06T09:47:56.866Z,993.07
2019-03-06T09:48:56.848Z,993.04
2019-03-06T09:51:01.086Z,993.00
2019-03-06T09:52:01.055Z,993.00
2019-03-06T09:54:05.285Z,992.99
2019-03-06T09:55:05.263Z,993.00
2019-03-06T09:57:09.480Z,992.92
2019-03-06T09:58:09.467Z,992.94
2019-03-06T10:00:14.262Z,992.90
2019-03-06T10:01:14.063Z,992.90
2019-03-06T10:03:18.092Z,992.81
2019-03-06T10:04:18.068Z,992.85
2019-03-06T10:06:22.286Z,992.80
2019-03-06T10:07:22.270Z,992.78
2019-03-06T10:09:26.508Z,992.77
2019-03-06T10:10:26.486Z,992.76
2019-03-06T10:12:30.715Z,992.82
2019-03-06T10:13:30.707Z,992.87
2019-03-06T10:15:23.890Z,992.85
2019-03-06T10:16:23.846Z,992.82
2019-03-06T10:18:28.071Z,992.80
2019-03-06T10:19:29.532Z,992.81
2019-03-06T10:21:32.283Z,992.83
2019-03-06T10:22:32.265Z,992.80
2019-03-06T10:24:36.473Z,992.77
2019-03-06T10:25:36.463Z,992.79
2019-03-06T10:27:40.703Z,992.66
2019-03-06T10:28:40.682Z,992.57
2019-03-06T10:30:44.890Z,992.49
2019-03-06T10:31:44.889Z,992.49
2019-03-06T10:33:49.101Z,992.45
2019-03-06T10:34:49.075Z,992.47
2019-03-06T10:36:53.292Z,992.47
2019-03-06T10:37:53.281Z,992.48
2019-03-06T10:39:57.505Z,992.46
2019-03-06T10:40:57.484Z,992.42
2019-03-06T10:43:01.704Z,992.40
2019-03-06T10:44:01.695Z,992.41
2019-03-06T10:46:05.931Z,992.32
2019-03-06T10:47:05.898Z,992.35
2019-03-06T10:49:10.120Z,992.34
2019-03-06T10:50:10.109Z,992.33
2019-03-06T10:52:14.374Z,992.33
2019-03-06T10:53:14.369Z,992.34
2019-03-06T10:55:07.491Z,992.31
2019-03-06T10:56:07.496Z,992.27
2019-03-06T10:58:11.708Z,992.21
2019-03-06T10:59:11.688Z,992.21
2019-03-06T11:01:15.901Z,992.16
2019-03-06T11:02:15.897Z,992.16
2019-03-06T11:04:20.121Z,992.05
2019-03-06T11:05:20.102Z,992.04
2019-03-06T11:07:24.328Z,992.06
2019-03-06T11:08:25.045Z,992.10
2019-03-06T11:10:28.560Z,991.96
2019-03-06T11:11:28.531Z,991.95
2019-03-06T11:13:32.769Z,991.87
2019-03-06T11:14:32.748Z,991.88
2019-03-06T11:16:38.079Z,991.83
2019-03-06T11:17:36.960Z,991.86
2019-03-06T11:18:36.950Z,991.83
2019-03-06T11:19:36.943Z,991.82
2019-03-06T11:20:36.940Z,991.79
2019-03-06T11:21:36.937Z,991.79
2019-03-06T11:22:36.927Z,991.74
2019-03-06T11:23:36.923Z,991.76
2019-03-06T11:24:36.915Z,991.70
2019-03-06T11:25:36.915Z,991.69
2019-03-06T11:26:36.902Z,991.74
2019-03-06T11:27:36.899Z,991.68
2019-03-06T11:28:36.892Z,991.67
2019-03-06T11:29:36.897Z,991.65
2019-03-06T11:30:36.890Z,991.61
2019-03-06T11:31:36.874Z,991.54
2019-03-06T11:32:36.869Z,991.52
2019-03-06T11:33:36.971Z,991.57
2019-03-06T11:34:36.854Z,991.52
2019-03-06T11:35:36.848Z,991.50
2019-03-06T11:36:36.842Z,991.43
2019-03-06T11:37:36.846Z,991.41
2019-03-06T11:38:36.831Z,991.41
2019-03-06T11:39:36.820Z,991.36
2019-03-06T11:40:36.813Z,991.36
2019-03-06T11:41:36.807Z,991.32
2019-03-06T11:42:36.800Z,991.31
2019-03-06T11:43:36.797Z,991.27
2019-03-06T11:44:36.788Z,991.38
2019-03-06T11:45:36.781Z,991.34
2019-03-06T11:46:36.771Z,991.25
2019-03-06T11:47:36.768Z,991.29
2019-03-06T11:48:36.758Z,991.27
2019-03-06T11:49:36.748Z,991.22
2019-03-06T11:50:40.792Z,991.26
2019-03-06T11:51:36.735Z,991.27
2019-03-06T11:52:36.731Z,991.17
2019-03-06T11:53:36.719Z,991.17
2019-03-06T11:54:36.708Z,991.12
2019-03-06T11:55:36.698Z,991.15
2019-03-06T11:56:36.694Z,991.16
2019-03-06T11:57:36.686Z,991.11
2019-03-06T11:58:36.679Z,991.09
2019-03-06T11:59:36.665Z,991.04
2019-03-06T12:00:36.658Z,991.05
2019-03-06T12:01:36.644Z,991.04
2019-03-06T12:02:36.641Z,990.96
2019-03-06T12:03:36.633Z,991.01
2019-03-06T12:04:36.628Z,990.93
2019-03-06T12:05:36.629Z,990.94
2019-03-06T12:06:36.607Z,990.89
2019-03-06T12:07:36.598Z,990.94
2019-03-06T12:08:42.867Z,990.90
2019-03-06T12:09:36.578Z,990.84
2019-03-06T12:10:36.571Z,990.84
2019-03-06T12:11:36.560Z,990.75
2019-03-06T12:12:36.553Z,990.76
2019-03-06T12:13:36.544Z,990.70
2019-03-06T12:14:36.534Z,990.71
2019-03-06T12:15:36.528Z,990.72
2019-03-06T12:16:41.729Z,990.64
2019-03-06T12:17:36.523Z,990.66
2019-03-06T12:18:36.499Z,990.66
2019-03-06T12:19:36.488Z,990.66
2019-03-06T12:20:36.479Z,990.67
2019-03-06T12:21:36.470Z,990.64
2019-03-06T12:22:36.466Z,990.65
2019-03-06T12:23:36.460Z,990.61
2019-03-06T12:24:36.442Z,990.61
2019-03-06T12:25:36.433Z,990.62
2019-03-06T12:26:36.426Z,990.63
2019-03-06T12:27:36.416Z,990.61
2019-03-06T12:28:36.405Z,990.57
2019-03-06T12:29:36.397Z,990.56
2019-03-06T12:30:36.390Z,990.54
2019-03-06T12:31:36.378Z,990.48
2019-03-06T12:32:36.370Z,990.51
2019-03-06T12:33:36.360Z,990.48
2019-03-06T12:34:36.352Z,990.45
2019-03-06T12:35:36.344Z,990.47
2019-03-06T12:36:36.333Z,990.48
2019-03-06T12:37:36.325Z,990.45
2019-03-06T12:38:36.317Z,990.43
2019-03-06T12:39:36.308Z,990.41
2019-03-06T12:40:36.298Z,990.39
2019-03-06T12:41:36.292Z,990.34
2019-03-06T12:42:36.280Z,990.31
2019-03-06T12:43:36.274Z,990.30
2019-03-06T12:44:36.265Z,990.29
2019-03-06T12:45:36.254Z,990.24
2019-03-06T12:46:36.247Z,990.24
2019-03-06T12:47:36.236Z,990.22
2019-03-06T12:48:36.232Z,990.14
2019-03-06T12:49:36.223Z,990.17
2019-03-06T12:50:36.210Z,990.19
2019-03-06T12:51:36.209Z,990.16
2019-03-06T12:52:36.195Z,990.21
2019-03-06T12:53:36.184Z,990.16
2019-03-06T12:54:36.174Z,990.09
2019-03-06T12:55:36.174Z,990.06
2019-03-06T12:56:36.156Z,990.10
2019-03-06T12:57:36.149Z,989.97
2019-03-06T12:58:36.140Z,989.98
2019-03-06T12:59:36.133Z,990.00
2019-03-06T13:00:36.123Z,990.01
2019-03-06T13:01:36.123Z,989.99
2019-03-06T13:02:36.107Z,990.00
2019-03-06T13:03:36.095Z,989.95
2019-03-06T13:04:36.091Z,989.92
2019-03-06T13:05:36.082Z,989.89
2019-03-06T13:06:36.074Z,989.87
2019-03-06T13:07:36.071Z,989.88
2019-03-06T13:08:36.056Z,989.95
2019-03-06T13:09:37.646Z,989.93
2019-03-06T13:10:36.047Z,989.94
2019-03-06T13:11:36.028Z,989.85
2019-03-06T13:12:38.185Z,989.91
2019-03-06T13:13:36.013Z,989.89
2019-03-06T13:14:36.010Z,989.85
2019-03-06T13:15:35.994Z,989.83
2019-03-06T13:16:35.988Z,989.79
2019-03-06T13:17:36.409Z,989.78
2019-03-06T13:18:35.971Z,989.74
2019-03-06T13:19:35.964Z,989.75
2019-03-06T13:20:35.971Z,989.65
2019-03-06T13:21:35.948Z,989.72
2019-03-06T13:22:35.942Z,989.69
2019-03-06T13:23:35.929Z,989.70
2019-03-06T13:24:35.922Z,989.71
2019-03-06T13:25:35.952Z,989.68
2019-03-06T13:26:35.910Z,989.70
2019-03-06T13:27:35.897Z,989.65
2019-03-06T13:28:35.891Z,989.65
2019-03-06T13:29:35.880Z,989.64
2019-03-06T13:30:35.873Z,989.64
2019-03-06T13:31:35.866Z,989.60
2019-03-06T13:32:35.857Z,989.59
2019-03-06T13:33:35.847Z,989.63
2019-03-06T13:34:35.885Z,989.61
2019-03-06T13:35:35.831Z,989.57
2019-03-06T13:36:35.830Z,989.53
2019-03-06T13:37:35.817Z,989.51
2019-03-06T13:38:35.814Z,989.54
2019-03-06T13:39:35.798Z,989.54
2019-03-06T13:40:35.792Z,989.52
2019-03-06T13:41:35.785Z,989.54
2019-03-06T13:42:35.775Z,989.47
2019-03-06T13:43:35.773Z,989.46
2019-03-06T13:44:35.756Z,989.50
2019-03-06T13:45:35.749Z,989.47
2019-03-06T13:46:35.743Z,989.46
2019-03-06T13:47:35.735Z,989.42
2019-03-06T13:48:35.724Z,989.38
2019-03-06T13:49:35.718Z,989.28
2019-03-06T13:50:35.709Z,989.37
2019-03-06T13:51:35.700Z,989.34
2019-03-06T13:52:35.692Z,989.29
2019-03-06T13:53:35.685Z,989.26
2019-03-06T13:54:35.676Z,989.23
2019-03-06T13:55:35.665Z,989.24
2019-03-06T13:56:35.657Z,989.20
2019-03-06T13:57:35.648Z,989.25
2019-03-06T13:58:35.641Z,989.20
2019-03-06T13:59:35.636Z,989.20
2019-03-06T14:00:35.621Z,989.19
2019-03-06T14:01:35.612Z,989.22
2019-03-06T14:02:37.230Z,989.19
2019-03-06T14:03:35.593Z,989.20
2019-03-06T14:04:35.628Z,989.23
2019-03-06T14:05:35.573Z,989.21
2019-03-06T14:06:35.565Z,989.19
2019-03-06T14:07:35.560Z,989.19
2019-03-06T14:08:35.546Z,989.21
2019-03-06T14:09:35.539Z,989.14
2019-03-06T14:10:35.528Z,989.14
2019-03-06T14:11:35.514Z,989.12
2019-03-06T14:12:35.506Z,989.11
2019-03-06T14:13:35.495Z,989.06
2019-03-06T14:14:35.482Z,989.07
2019-03-06T14:15:35.477Z,989.04
2019-03-06T14:16:35.505Z,989.00
2019-03-06T14:17:35.454Z,989.03
2019-03-06T14:18:35.445Z,988.98
2019-03-06T14:19:35.433Z,988.90
2019-03-06T14:20:35.424Z,988.90
2019-03-06T14:21:35.410Z,988.90
2019-03-06T14:22:35.402Z,988.89
2019-03-06T14:23:35.536Z,988.89
2019-03-06T14:24:35.380Z,988.88
2019-03-06T14:25:35.373Z,988.90
2019-03-06T14:26:35.357Z,988.89
2019-03-06T14:27:35.345Z,988.93
2019-03-06T14:28:35.335Z,988.86
2019-03-06T14:29:35.323Z,988.89
2019-03-06T14:30:35.313Z,988.87
2019-03-06T14:31:35.298Z,988.87
2019-03-06T14:32:35.290Z,988.85
2019-03-06T14:33:35.278Z,988.86
2019-03-06T14:34:35.267Z,988.88
2019-03-06T14:35:35.255Z,988.89
2019-03-06T14:36:35.242Z,988.87
2019-03-06T14:37:35.237Z,988.85
2019-03-06T14:38:35.220Z,988.84
2019-03-06T14:39:35.208Z,988.90
2019-03-06T14:40:35.200Z,988.85
2019-03-06T14:41:35.185Z,988.88
2019-03-06T14:42:35.174Z,988.82
2019-03-06T14:43:35.161Z,988.84
2019-03-06T14:44:35.149Z,988.81
2019-03-06T14:45:35.150Z,988.81
2019-03-06T14:46:35.129Z,988.77
2019-03-06T14:47:35.119Z,988.80
2019-03-06T14:48:35.101Z,988.79
2019-03-06T14:49:35.091Z,988.78
2019-03-06T14:50:35.080Z,988.75
2019-03-06T14:51:35.068Z,988.74
2019-03-06T14:52:35.055Z,988.75
2019-03-06T14:53:35.040Z,988.72
2019-03-06T14:54:35.057Z,988.73
2019-03-06T14:55:35.018Z,988.71
2019-03-06T14:56:35.005Z,988.69
2019-03-06T14:57:34.996Z,988.68
2019-03-06T14:58:34.984Z,988.69
2019-03-06T14:59:34.968Z,988.65
2019-03-06T15:00:34.962Z,988.66
2019-03-06T15:01:34.947Z,988.68
2019-03-06T15:02:34.934Z,988.67
2019-03-06T15:03:34.921Z,988.67
2019-03-06T15:04:34.906Z,988.62
2019-03-06T15:05:34.905Z,988.59
2019-03-06T15:06:34.886Z,988.59
2019-03-06T15:07:34.875Z,988.57
2019-03-06T15:08:34.871Z,988.53
2019-03-06T15:09:34.854Z,988.59
2019-03-06T15:10:42.687Z,988.53
2019-03-06T15:11:34.825Z,988.51
2019-03-06T15:12:34.813Z,988.47
2019-03-06T15:13:34.801Z,988.50
2019-03-06T15:14:36.201Z,988.47
2019-03-06T15:15:34.805Z,988.46
2019-03-06T15:16:34.770Z,988.45
2019-03-06T15:17:34.753Z,988.44
2019-03-06T15:18:34.744Z,988.42
2019-03-06T15:19:34.722Z,988.46
2019-03-06T15:20:34.716Z,988.47
2019-03-06T15:21:34.714Z,988.49
2019-03-06T15:22:38.620Z,988.46
2019-03-06T15:23:36.511Z,988.45
2019-03-06T15:24:40.992Z,988.43
2019-03-06T15:25:34.649Z,988.45
2019-03-06T15:26:34.641Z,988.44
2019-03-06T15:27:34.629Z,988.44
2019-03-06T15:28:34.618Z,988.43
2019-03-06T15:29:34.606Z,988.43
2019-03-06T15:30:34.587Z,988.40
2019-03-06T15:31:34.582Z,988.42
2019-03-06T15:32:34.571Z,988.40
2019-03-06T15:33:34.553Z,988.38
2019-03-06T15:34:34.548Z,988.42
2019-03-06T15:35:34.532Z,988.42
2019-03-06T15:36:34.556Z,988.40
2019-03-06T15:37:34.505Z,988.46
2019-03-06T15:38:34.492Z,988.43
2019-03-06T15:39:42.747Z,988.44
2019-03-06T15:40:34.467Z,988.37
2019-03-06T15:41:34.456Z,988.37
2019-03-06T15:42:34.451Z,988.42
2019-03-06T15:43:34.430Z,988.38
2019-03-06T15:44:34.430Z,988.35
2019-03-06T15:45:34.405Z,988.32
2019-03-06T15:46:34.397Z,988.32
2019-03-06T15:47:34.380Z,988.33
2019-03-06T15:48:34.366Z,988.30
2019-03-06T15:49:34.351Z,988.25
2019-03-06T15:50:34.340Z,988.29
2019-03-06T15:51:34.668Z,988.25
2019-03-06T15:52:34.314Z,988.25
2019-03-06T15:53:34.302Z,988.23
2019-03-06T15:54:34.290Z,988.19
2019-03-06T15:55:34.280Z,988.13
2019-03-06T15:56:34.263Z,988.13
2019-03-06T15:57:34.249Z,988.14
2019-03-06T15:58:34.292Z,988.12
2019-03-06T15:59:34.224Z,988.06
2019-03-06T16:00:34.212Z,988.06
2019-03-06T16:01:34.199Z,988.14
2019-03-06T16:02:34.182Z,988.11
2019-03-06T16:03:34.176Z,988.11
2019-03-06T16:04:34.159Z,988.10
2019-03-06T16:05:34.145Z,988.12
2019-03-06T16:06:34.135Z,988.11
2019-03-06T16:07:34.117Z,988.09
2019-03-06T16:08:34.124Z,988.09
2019-03-06T16:09:34.094Z,988.06
2019-03-06T16:10:34.079Z,988.04
2019-03-06T16:11:34.070Z,988.05
2019-03-06T16:12:34.048Z,988.09
2019-03-06T16:13:34.041Z,988.03
2019-03-06T16:16:06.453Z,988.01
2019-03-06T16:17:06.423Z,988.06
2019-03-06T16:19:10.663Z,987.96
2019-03-06T16:20:10.653Z,987.99
2019-03-06T16:22:14.827Z,988.00
2019-03-06T16:23:14.841Z,988.03
2019-03-06T16:25:19.083Z,988.01
2019-03-06T16:26:19.102Z,988.00
2019-03-06T16:27:19.043Z,988.03